London, Canada
Current Conditions -  °F | °C
As of 9:00 AM on Saturday 25 Oct 2014 (Local Time) from CYXU Reporting Station
Haze Haze  
Wind Chill: 10°   Ceiling: 7000
Heat Index: 10°   Visibility: 5mi
Dew Point:   Wind: 7mph
Humidity: 94%   Direction: 200°SSW
Pressure: 29.8"   Gusts: NA
Location:  42.99°N, 81.25°W
Report Text: CYXU 251300Z 20006KT 5SM BR BKN070 10/09 A2980 RMK AC7 SLP095
Loading
Personal Weather Stations






























Interactive Weather Map
Tropical Storm Tracking
New forecast layout! Learn more

10-Day Weather Forecast

Advertisements
Track Severe Weather on mobile